Briefing drone pour Vauvert

Rechercher une autre localisation

Conditions de vol :


Nous sommes le : Mercredi 14 avril 2021
Il est 23:05 UTC (01:05 LT)

Lever de soleil : 04:34 UTC (06:34 LT)
Coucher de soleil : 18:51 UTC (20:51 LT)

Météo

L'essentiel des conditions de vol

VIGILANCE MÉTÉO FRANCE - Gard (30)
Pas de vigilances particulieres
CARTE TEMSI
CARTES DES FRONTS
METAR de LFTW
LFTW 132300Z AUTO 36014KT CAVOK 08/M03 Q1022

Date d'émission: 13/04/2021
Heure d'émission: 23:00 UTC
Vent: 360° pour 14 KT (26 km/h)
Visibilité horizontale: > 10 km
Plafond : Plafond et visibilité OK (CAVOK)
Température: 8 °C
Point de rosée: -3 °C
Humidité: 46%
Pression (QNH): 1022 hPa
TAF de LFTW
LFTW 131855Z 1318/1415 CNL

Conditions prévues :

Heure d'émission : Bulletin éffectué le 13 à 18:00 UTC
Prévision : Valide du 13 a 18:00 UTC au 14 a 15:00 UTC
Nuages : à 0ft (0 m)
WEBCAM POUR VAUVERT

Réglementation

Voler en sécurité

CARTES AERONAUTIQUE 1/500.000
CARTES VAC (LFTW)
SUP AIP




Chargement des AIP...
NOTAM (VAUVERT + Terrain à proximité / FIR )




Chargement des NOTAMS...
CONTACT PREFECTURE 30


Avertissement : Les données mises à disposition sont indicatives. Oxygène Drone ne pourra être tenu responsable de dégâts causés aux biens et aux personnes.